sensor_id;sensor_type;location;lat;lon;timestamp;pressure;altitude;pressure_sealevel;temperature;humidity
75895;BME280;64573;50.328;15.014;2023-12-04T00:00:24;99518.47;;;-3.01;100.00
75895;BME280;64573;50.328;15.014;2023-12-04T00:02:49;99511.47;;;-3.34;100.00
75895;BME280;64573;50.328;15.014;2023-12-04T00:12:44;99498.47;;;-3.53;100.00
75895;BME280;64573;50.328;15.014;2023-12-04T00:17:45;99499.94;;;-3.47;100.00
75895;BME280;64573;50.328;15.014;2023-12-04T00:20:10;99508.44;;;-3.59;100.00
75895;BME280;64573;50.328;15.014;2023-12-04T00:25:02;99503.81;;;-3.72;100.00
75895;BME280;64573;50.328;15.014;2023-12-04T00:27:28;99512.56;;;-3.89;100.00
75895;BME280;64573;50.328;15.014;2023-12-04T00:29:54;99504.84;;;-4.09;100.00
75895;BME280;64573;50.328;15.014;2023-12-04T00:32:19;99510.84;;;-4.24;100.00
75895;BME280;64573;50.328;15.014;2023-12-04T00:34:44;99510.28;;;-4.31;100.00
75895;BME280;64573;50.328;15.014;2023-12-04T00:42:17;99524.34;;;-3.97;100.00
75895;BME280;64573;50.328;15.014;2023-12-04T00:44:43;99523.75;;;-4.21;100.00
75895;BME280;64573;50.328;15.014;2023-12-04T00:47:08;99523.00;;;-4.40;100.00
75895;BME280;64573;50.328;15.014;2023-12-04T00:52:09;99529.41;;;-4.11;100.00
75895;BME280;64573;50.328;15.014;2023-12-04T00:54:34;99519.91;;;-4.14;100.00
75895;BME280;64573;50.328;15.014;2023-12-04T00:56:59;99518.47;;;-4.20;100.00
75895;BME280;64573;50.328;15.014;2023-12-04T00:59:25;99514.47;;;-4.09;100.00
75895;BME280;64573;50.328;15.014;2023-12-04T01:01:50;99515.59;;;-4.32;100.00
75895;BME280;64573;50.328;15.014;2023-12-04T01:04:15;99524.19;;;-4.48;100.00
75895;BME280;64573;50.328;15.014;2023-12-04T01:09:06;99532.53;;;-4.39;100.00
75895;BME280;64573;50.328;15.014;2023-12-04T01:11:31;99531.41;;;-4.34;100.00
75895;BME280;64573;50.328;15.014;2023-12-04T01:16:27;99535.16;;;-4.39;100.00
75895;BME280;64573;50.328;15.014;2023-12-04T01:21:29;99536.19;;;-4.25;100.00
75895;BME280;64573;50.328;15.014;2023-12-04T01:23:54;99544.53;;;-4.35;100.00
75895;BME280;64573;50.328;15.014;2023-12-04T01:26:19;99541.50;;;-4.26;100.00
75895;BME280;64573;50.328;15.014;2023-12-04T01:28:45;99539.84;;;-4.65;100.00
75895;BME280;64573;50.328;15.014;2023-12-04T01:31:10;99541.72;;;-4.50;100.00
75895;BME280;64573;50.328;15.014;2023-12-04T01:33:35;99518.88;;;-4.46;100.00
75895;BME280;64573;50.328;15.014;2023-12-04T01:36:02;99529.56;;;-4.51;100.00
75895;BME280;64573;50.328;15.014;2023-12-04T01:38:27;99544.66;;;-4.75;100.00
75895;BME280;64573;50.328;15.014;2023-12-04T01:40:52;99541.78;;;-4.68;100.00
75895;BME280;64573;50.328;15.014;2023-12-04T01:43:18;99549.06;;;-4.75;100.00
75895;BME280;64573;50.328;15.014;2023-12-04T01:45:44;99539.38;;;-4.92;100.00
75895;BME280;64573;50.328;15.014;2023-12-04T01:48:10;99545.22;;;-4.87;100.00
75895;BME280;64573;50.328;15.014;2023-12-04T01:50:36;99536.97;;;-4.96;100.00
75895;BME280;64573;50.328;15.014;2023-12-04T01:53:03;99546.84;;;-5.03;100.00
75895;BME280;64573;50.328;15.014;2023-12-04T01:55:29;99542.47;;;-5.03;100.00
75895;BME280;64573;50.328;15.014;2023-12-04T01:57:55;99546.16;;;-5.07;100.00
75895;BME280;64573;50.328;15.014;2023-12-04T02:00:21;99539.56;;;-5.15;100.00
75895;BME280;64573;50.328;15.014;2023-12-04T02:02:47;99533.13;;;-5.27;100.00
75895;BME280;64573;50.328;15.014;2023-12-04T02:05:13;99531.09;;;-5.20;100.00
75895;BME280;64573;50.328;15.014;2023-12-04T02:07:40;99528.50;;;-5.22;100.00
75895;BME280;64573;50.328;15.014;2023-12-04T02:10:06;99533.19;;;-5.29;100.00
75895;BME280;64573;50.328;15.014;2023-12-04T02:12:32;99528.66;;;-5.25;100.00
75895;BME280;64573;50.328;15.014;2023-12-04T02:14:57;99533.34;;;-5.52;100.00
75895;BME280;64573;50.328;15.014;2023-12-04T02:22:18;99536.56;;;-5.66;100.00
75895;BME280;64573;50.328;15.014;2023-12-04T02:24:44;99534.09;;;-5.69;100.00
75895;BME280;64573;50.328;15.014;2023-12-04T02:29:46;99531.53;;;-5.70;100.00
75895;BME280;64573;50.328;15.014;2023-12-04T02:32:15;99516.13;;;-5.76;100.00
75895;BME280;64573;50.328;15.014;2023-12-04T02:34:42;99514.50;;;-5.79;100.00
75895;BME280;64573;50.328;15.014;2023-12-04T02:37:09;99522.53;;;-5.84;100.00
75895;BME280;64573;50.328;15.014;2023-12-04T02:39:36;99524.56;;;-5.90;100.00
75895;BME280;64573;50.328;15.014;2023-12-04T02:44:31;99528.88;;;-6.09;100.00
75895;BME280;64573;50.328;15.014;2023-12-04T02:46:56;99513.19;;;-6.09;100.00
75895;BME280;64573;50.328;15.014;2023-12-04T02:49:22;99519.66;;;-6.18;100.00
75895;BME280;64573;50.328;15.014;2023-12-04T02:51:47;99516.41;;;-6.03;100.00
75895;BME280;64573;50.328;15.014;2023-12-04T02:59:20;99531.53;;;-6.11;100.00
75895;BME280;64573;50.328;15.014;2023-12-04T03:01:46;99528.69;;;-6.05;100.00
75895;BME280;64573;50.328;15.014;2023-12-04T03:04:11;99529.84;;;-6.12;100.00
75895;BME280;64573;50.328;15.014;2023-12-04T03:06:37;99527.66;;;-6.01;100.00
75895;BME280;64573;50.328;15.014;2023-12-04T03:09:03;99532.59;;;-6.15;100.00
75895;BME280;64573;50.328;15.014;2023-12-04T03:11:29;99529.47;;;-6.03;100.00
75895;BME280;64573;50.328;15.014;2023-12-04T03:13:54;99523.44;;;-6.25;100.00
75895;BME280;64573;50.328;15.014;2023-12-04T03:16:20;99521.91;;;-6.31;100.00
75895;BME280;64573;50.328;15.014;2023-12-04T03:18:45;99511.69;;;-6.35;100.00
75895;BME280;64573;50.328;15.014;2023-12-04T03:21:11;99502.94;;;-6.34;100.00
75895;BME280;64573;50.328;15.014;2023-12-04T03:23:36;99514.44;;;-6.18;100.00
75895;BME280;64573;50.328;15.014;2023-12-04T03:26:02;99509.69;;;-6.29;100.00
75895;BME280;64573;50.328;15.014;2023-12-04T03:28:27;99499.81;;;-6.64;100.00
75895;BME280;64573;50.328;15.014;2023-12-04T03:30:53;99503.50;;;-6.48;100.00
75895;BME280;64573;50.328;15.014;2023-12-04T03:33:18;99495.25;;;-6.17;100.00
75895;BME280;64573;50.328;15.014;2023-12-04T03:35:44;99492.28;;;-6.08;100.00
75895;BME280;64573;50.328;15.014;2023-12-04T03:38:09;99481.16;;;-6.13;100.00
75895;BME280;64573;50.328;15.014;2023-12-04T03:40:34;99478.94;;;-6.22;100.00
75895;BME280;64573;50.328;15.014;2023-12-04T03:43:00;99473.41;;;-6.15;100.00
75895;BME280;64573;50.328;15.014;2023-12-04T03:45:25;99471.69;;;-6.16;100.00
75895;BME280;64573;50.328;15.014;2023-12-04T03:50:16;99474.63;;;-6.03;100.00
75895;BME280;64573;50.328;15.014;2023-12-04T03:52:41;99469.72;;;-6.11;100.00
75895;BME280;64573;50.328;15.014;2023-12-04T03:55:07;99470.84;;;-6.16;100.00
75895;BME280;64573;50.328;15.014;2023-12-04T03:57:33;99476.13;;;-6.18;100.00
75895;BME280;64573;50.328;15.014;2023-12-04T03:59:58;99456.56;;;-6.28;100.00
75895;BME280;64573;50.328;15.014;2023-12-04T04:02:24;99451.50;;;-6.53;100.00
75895;BME280;64573;50.328;15.014;2023-12-04T04:04:49;99463.84;;;-6.16;100.00
75895;BME280;64573;50.328;15.014;2023-12-04T04:07:16;99460.94;;;-6.08;100.00
75895;BME280;64573;50.328;15.014;2023-12-04T04:14:32;99450.66;;;-6.33;100.00
75895;BME280;64573;50.328;15.014;2023-12-04T04:16:57;99444.94;;;-6.00;100.00
75895;BME280;64573;50.328;15.014;2023-12-04T04:19:23;99446.78;;;-5.84;100.00
75895;BME280;64573;50.328;15.014;2023-12-04T04:21:48;99452.25;;;-5.69;100.00
75895;BME280;64573;50.328;15.014;2023-12-04T04:24:13;99452.91;;;-5.64;100.00
75895;BME280;64573;50.328;15.014;2023-12-04T04:26:39;99455.66;;;-5.48;100.00
75895;BME280;64573;50.328;15.014;2023-12-04T04:29:04;99453.69;;;-5.83;100.00
75895;BME280;64573;50.328;15.014;2023-12-04T04:31:30;99453.28;;;-5.73;100.00
75895;BME280;64573;50.328;15.014;2023-12-04T04:33:55;99451.94;;;-5.82;100.00
75895;BME280;64573;50.328;15.014;2023-12-04T04:38:49;99452.44;;;-6.13;100.00
75895;BME280;64573;50.328;15.014;2023-12-04T04:41:15;99461.31;;;-5.97;100.00
75895;BME280;64573;50.328;15.014;2023-12-04T04:43:41;99445.91;;;-6.03;100.00
75895;BME280;64573;50.328;15.014;2023-12-04T04:46:07;99452.56;;;-6.16;100.00
75895;BME280;64573;50.328;15.014;2023-12-04T04:48:32;99453.28;;;-6.33;100.00
75895;BME280;64573;50.328;15.014;2023-12-04T04:50:57;99442.31;;;-6.41;100.00
75895;BME280;64573;50.328;15.014;2023-12-04T04:53:23;99441.22;;;-6.35;100.00
75895;BME280;64573;50.328;15.014;2023-12-04T04:55:48;99439.84;;;-6.24;100.00
75895;BME280;64573;50.328;15.014;2023-12-04T04:58:14;99435.16;;;-6.36;100.00
75895;BME280;64573;50.328;15.014;2023-12-04T05:00:40;99438.09;;;-6.44;100.00
75895;BME280;64573;50.328;15.014;2023-12-04T05:03:05;99445.56;;;-7.69;100.00
75895;BME280;64573;50.328;15.014;2023-12-04T05:05:31;99436.13;;;-7.48;100.00
75895;BME280;64573;50.328;15.014;2023-12-04T05:07:56;99455.63;;;-7.13;100.00
75895;BME280;64573;50.328;15.014;2023-12-04T05:10:21;99454.09;;;-7.18;100.00
75895;BME280;64573;50.328;15.014;2023-12-04T05:12:47;99440.47;;;-7.95;100.00
75895;BME280;64573;50.328;15.014;2023-12-04T05:15:12;99446.16;;;-7.37;100.00
75895;BME280;64573;50.328;15.014;2023-12-04T05:17:37;99444.09;;;-7.29;100.00
75895;BME280;64573;50.328;15.014;2023-12-04T05:20:03;99435.31;;;-7.27;100.00
75895;BME280;64573;50.328;15.014;2023-12-04T05:22:28;99438.47;;;-7.18;100.00
75895;BME280;64573;50.328;15.014;2023-12-04T05:24:54;99425.50;;;-7.20;100.00
75895;BME280;64573;50.328;15.014;2023-12-04T05:27:19;99432.94;;;-7.33;100.00
75895;BME280;64573;50.328;15.014;2023-12-04T05:29:44;99426.25;;;-7.40;100.00
75895;BME280;64573;50.328;15.014;2023-12-04T05:32:10;99428.09;;;-7.42;100.00
75895;BME280;64573;50.328;15.014;2023-12-04T05:34:35;99436.31;;;-7.53;100.00
75895;BME280;64573;50.328;15.014;2023-12-04T05:37:00;99421.44;;;-7.27;100.00
75895;BME280;64573;50.328;15.014;2023-12-04T05:39:26;99442.91;;;-7.20;100.00
75895;BME280;64573;50.328;15.014;2023-12-04T05:41:51;99439.75;;;-7.29;100.00
75895;BME280;64573;50.328;15.014;2023-12-04T05:44:17;99443.19;;;-7.28;100.00
75895;BME280;64573;50.328;15.014;2023-12-04T05:46:42;99448.56;;;-7.33;100.00
75895;BME280;64573;50.328;15.014;2023-12-04T05:49:08;99448.03;;;-7.19;100.00
75895;BME280;64573;50.328;15.014;2023-12-04T05:51:33;99441.69;;;-7.12;100.00
75895;BME280;64573;50.328;15.014;2023-12-04T05:53:59;99448.19;;;-7.22;100.00
75895;BME280;64573;50.328;15.014;2023-12-04T05:56:24;99446.19;;;-7.39;100.00
75895;BME280;64573;50.328;15.014;2023-12-04T05:58:50;99438.56;;;-7.43;100.00
75895;BME280;64573;50.328;15.014;2023-12-04T06:01:15;99430.81;;;-7.45;100.00
75895;BME280;64573;50.328;15.014;2023-12-04T06:03:41;99424.66;;;-7.66;100.00
75895;BME280;64573;50.328;15.014;2023-12-04T06:06:06;99447.03;;;-7.85;100.00
75895;BME280;64573;50.328;15.014;2023-12-04T06:08:32;99436.69;;;-7.63;100.00
75895;BME280;64573;50.328;15.014;2023-12-04T06:10:57;99424.47;;;-7.61;100.00
75895;BME280;64573;50.328;15.014;2023-12-04T06:13:23;99420.97;;;-7.60;100.00
75895;BME280;64573;50.328;15.014;2023-12-04T06:15:48;99427.72;;;-7.33;100.00
75895;BME280;64573;50.328;15.014;2023-12-04T06:18:13;99418.16;;;-7.10;100.00
75895;BME280;64573;50.328;15.014;2023-12-04T06:20:39;99407.03;;;-7.14;100.00
75895;BME280;64573;50.328;15.014;2023-12-04T06:23:04;99415.25;;;-6.59;100.00
75895;BME280;64573;50.328;15.014;2023-12-04T06:25:30;99412.03;;;-6.45;100.00
75895;BME280;64573;50.328;15.014;2023-12-04T06:27:56;99408.31;;;-6.40;100.00
75895;BME280;64573;50.328;15.014;2023-12-04T06:30:21;99405.97;;;-6.05;100.00
75895;BME280;64573;50.328;15.014;2023-12-04T06:32:47;99403.41;;;-5.88;100.00
75895;BME280;64573;50.328;15.014;2023-12-04T06:35:13;99394.28;;;-5.77;100.00
75895;BME280;64573;50.328;15.014;2023-12-04T06:37:39;99389.50;;;-5.88;100.00
75895;BME280;64573;50.328;15.014;2023-12-04T06:40:05;99402.69;;;-5.71;100.00
75895;BME280;64573;50.328;15.014;2023-12-04T06:42:34;99395.41;;;-5.64;100.00
75895;BME280;64573;50.328;15.014;2023-12-04T06:45:00;99396.84;;;-5.57;100.00
75895;BME280;64573;50.328;15.014;2023-12-04T06:47:25;99405.44;;;-5.36;100.00
75895;BME280;64573;50.328;15.014;2023-12-04T06:49:51;99394.78;;;-5.32;100.00
75895;BME280;64573;50.328;15.014;2023-12-04T06:54:41;99393.75;;;-4.91;100.00
75895;BME280;64573;50.328;15.014;2023-12-04T06:57:07;99392.81;;;-4.73;100.00
75895;BME280;64573;50.328;15.014;2023-12-04T06:59:33;99391.09;;;-4.55;100.00
75895;BME280;64573;50.328;15.014;2023-12-04T07:01:58;99402.56;;;-4.40;100.00
75895;BME280;64573;50.328;15.014;2023-12-04T07:04:23;99397.03;;;-4.34;100.00
75895;BME280;64573;50.328;15.014;2023-12-04T07:06:49;99396.53;;;-4.77;100.00
75895;BME280;64573;50.328;15.014;2023-12-04T07:09:14;99400.06;;;-4.44;100.00
75895;BME280;64573;50.328;15.014;2023-12-04T07:11:40;99399.31;;;-4.46;100.00
75895;BME280;64573;50.328;15.014;2023-12-04T07:14:05;99391.50;;;-4.82;100.00
75895;BME280;64573;50.328;15.014;2023-12-04T07:16:30;99389.28;;;-4.89;100.00
75895;BME280;64573;50.328;15.014;2023-12-04T07:18:56;99393.78;;;-4.93;100.00
75895;BME280;64573;50.328;15.014;2023-12-04T07:21:21;99395.50;;;-4.92;100.00
75895;BME280;64573;50.328;15.014;2023-12-04T07:23:46;99394.75;;;-4.59;100.00
75895;BME280;64573;50.328;15.014;2023-12-04T07:26:12;99393.44;;;-4.68;100.00
75895;BME280;64573;50.328;15.014;2023-12-04T07:28:38;99385.50;;;-4.14;100.00
75895;BME280;64573;50.328;15.014;2023-12-04T07:31:03;99379.88;;;-4.07;100.00
75895;BME280;64573;50.328;15.014;2023-12-04T07:33:29;99375.16;;;-4.00;100.00
75895;BME280;64573;50.328;15.014;2023-12-04T07:35:55;99374.97;;;-3.80;100.00
75895;BME280;64573;50.328;15.014;2023-12-04T07:38:20;99380.59;;;-3.39;100.00
75895;BME280;64573;50.328;15.014;2023-12-04T07:40:46;99374.94;;;-3.31;100.00
75895;BME280;64573;50.328;15.014;2023-12-04T07:43:12;99373.91;;;-2.97;100.00
75895;BME280;64573;50.328;15.014;2023-12-04T07:45:39;99374.25;;;-3.03;100.00
75895;BME280;64573;50.328;15.014;2023-12-04T07:48:05;99374.28;;;-2.73;100.00
75895;BME280;64573;50.328;15.014;2023-12-04T07:50:30;99362.78;;;-2.56;100.00
75895;BME280;64573;50.328;15.014;2023-12-04T07:52:55;99367.50;;;-2.47;100.00
75895;BME280;64573;50.328;15.014;2023-12-04T07:55:21;99358.22;;;-2.08;100.00
75895;BME280;64573;50.328;15.014;2023-12-04T07:57:46;99358.28;;;-2.24;100.00
75895;BME280;64573;50.328;15.014;2023-12-04T08:00:12;99360.50;;;-2.32;100.00
75895;BME280;64573;50.328;15.014;2023-12-04T08:02:39;99359.53;;;-1.87;100.00
75895;BME280;64573;50.328;15.014;2023-12-04T08:05:05;99354.34;;;-1.74;100.00
75895;BME280;64573;50.328;15.014;2023-12-04T08:07:31;99355.53;;;-0.96;100.00
75895;BME280;64573;50.328;15.014;2023-12-04T08:09:56;99345.91;;;-0.43;100.00
75895;BME280;64573;50.328;15.014;2023-12-04T08:12:22;99331.75;;;-0.54;100.00
75895;BME280;64573;50.328;15.014;2023-12-04T08:14:47;99338.72;;;-1.34;100.00
75895;BME280;64573;50.328;15.014;2023-12-04T08:17:12;99325.97;;;-0.87;100.00
75895;BME280;64573;50.328;15.014;2023-12-04T08:19:38;99334.00;;;-1.02;100.00
75895;BME280;64573;50.328;15.014;2023-12-04T08:22:04;99328.19;;;-0.41;100.00
75895;BME280;64573;50.328;15.014;2023-12-04T08:24:29;99332.59;;;-0.41;100.00
75895;BME280;64573;50.328;15.014;2023-12-04T08:26:56;99332.31;;;-1.03;100.00
75895;BME280;64573;50.328;15.014;2023-12-04T08:29:22;99325.50;;;-0.66;100.00
75895;BME280;64573;50.328;15.014;2023-12-04T08:31:47;99325.66;;;0.09;100.00
75895;BME280;64573;50.328;15.014;2023-12-04T08:34:12;99329.84;;;0.37;100.00
75895;BME280;64573;50.328;15.014;2023-12-04T08:36:38;99327.88;;;-0.11;100.00
75895;BME280;64573;50.328;15.014;2023-12-04T08:39:03;99333.28;;;0.50;100.00
75895;BME280;64573;50.328;15.014;2023-12-04T08:41:29;99321.56;;;0.54;100.00
75895;BME280;64573;50.328;15.014;2023-12-04T08:43:54;99312.88;;;0.65;100.00
75895;BME280;64573;50.328;15.014;2023-12-04T08:46:20;99321.25;;;0.59;100.00
75895;BME280;64573;50.328;15.014;2023-12-04T08:48:46;99312.72;;;0.55;100.00
75895;BME280;64573;50.328;15.014;2023-12-04T08:51:17;99319.44;;;0.96;100.00
75895;BME280;64573;50.328;15.014;2023-12-04T08:53:43;99326.00;;;0.53;100.00
75895;BME280;64573;50.328;15.014;2023-12-04T08:56:09;99317.31;;;1.36;100.00
75895;BME280;64573;50.328;15.014;2023-12-04T08:58:34;99326.97;;;2.51;100.00
75895;BME280;64573;50.328;15.014;2023-12-04T09:01:00;99329.16;;;2.23;100.00
75895;BME280;64573;50.328;15.014;2023-12-04T09:03:25;99318.91;;;2.30;100.00
75895;BME280;64573;50.328;15.014;2023-12-04T09:05:50;99315.75;;;0.62;100.00
75895;BME280;64573;50.328;15.014;2023-12-04T09:08:17;99319.31;;;0.37;100.00
75895;BME280;64573;50.328;15.014;2023-12-04T09:10:43;99315.31;;;0.18;100.00
75895;BME280;64573;50.328;15.014;2023-12-04T09:13:09;99310.59;;;0.84;100.00
75895;BME280;64573;50.328;15.014;2023-12-04T09:15:34;99312.28;;;1.44;100.00
75895;BME280;64573;50.328;15.014;2023-12-04T09:17:59;99309.41;;;2.38;100.00
75895;BME280;64573;50.328;15.014;2023-12-04T09:20:25;99312.41;;;0.47;100.00
75895;BME280;64573;50.328;15.014;2023-12-04T09:22:51;99300.03;;;-0.15;100.00
75895;BME280;64573;50.328;15.014;2023-12-04T09:25:16;99316.88;;;0.34;100.00
75895;BME280;64573;50.328;15.014;2023-12-04T09:27:41;99318.06;;;0.04;100.00
75895;BME280;64573;50.328;15.014;2023-12-04T09:30:07;99311.72;;;0.32;100.00
75895;BME280;64573;50.328;15.014;2023-12-04T09:35:02;99302.44;;;0.14;100.00
75895;BME280;64573;50.328;15.014;2023-12-04T09:37:27;99303.56;;;0.72;100.00
75895;BME280;64573;50.328;15.014;2023-12-04T09:39:52;99299.91;;;0.86;100.00
75895;BME280;64573;50.328;15.014;2023-12-04T09:42:19;99295.84;;;1.41;100.00
75895;BME280;64573;50.328;15.014;2023-12-04T09:44:47;99287.50;;;1.80;100.00
75895;BME280;64573;50.328;15.014;2023-12-04T09:47:13;99284.28;;;0.95;100.00
75895;BME280;64573;50.328;15.014;2023-12-04T09:49:38;99270.22;;;0.34;100.00
75895;BME280;64573;50.328;15.014;2023-12-04T09:54:35;99269.25;;;0.96;100.00
75895;BME280;64573;50.328;15.014;2023-12-04T09:57:01;99258.31;;;1.24;100.00
75895;BME280;64573;50.328;15.014;2023-12-04T09:59:27;99255.16;;;0.84;100.00
75895;BME280;64573;50.328;15.014;2023-12-04T10:01:55;99245.34;;;0.62;100.00
75895;BME280;64573;50.328;15.014;2023-12-04T10:04:21;99244.69;;;1.06;100.00
75895;BME280;64573;50.328;15.014;2023-12-04T10:06:49;99239.28;;;1.08;100.00
75895;BME280;64573;50.328;15.014;2023-12-04T10:09:16;99228.13;;;1.62;100.00
75895;BME280;64573;50.328;15.014;2023-12-04T10:11:44;99212.28;;;1.04;100.00
75895;BME280;64573;50.328;15.014;2023-12-04T10:14:15;99217.09;;;1.90;100.00
75895;BME280;64573;50.328;15.014;2023-12-04T10:16:41;99210.56;;;0.68;100.00
75895;BME280;64573;50.328;15.014;2023-12-04T10:19:22;99210.78;;;0.89;100.00
75895;BME280;64573;50.328;15.014;2023-12-04T10:21:56;99209.41;;;0.12;100.00
75895;BME280;64573;50.328;15.014;2023-12-04T10:26:59;99204.63;;;0.30;100.00
75895;BME280;64573;50.328;15.014;2023-12-04T10:29:30;99206.84;;;-0.14;100.00
75895;BME280;64573;50.328;15.014;2023-12-04T10:32:04;99186.72;;;-0.40;100.00
75895;BME280;64573;50.328;15.014;2023-12-04T10:36:55;99188.69;;;0.31;100.00
75895;BME280;64573;50.328;15.014;2023-12-04T10:39:20;99173.97;;;-0.21;100.00
75895;BME280;64573;50.328;15.014;2023-12-04T10:44:17;99172.31;;;0.50;100.00
75895;BME280;64573;50.328;15.014;2023-12-04T10:46:44;99166.16;;;0.97;100.00
75895;BME280;64573;50.328;15.014;2023-12-04T10:49:11;99167.66;;;1.35;100.00
75895;BME280;64573;50.328;15.014;2023-12-04T10:54:03;99137.22;;;0.96;100.00
75895;BME280;64573;50.328;15.014;2023-12-04T10:56:36;99120.94;;;1.58;100.00
75895;BME280;64573;50.328;15.014;2023-12-04T10:59:08;99113.13;;;1.68;100.00
75895;BME280;64573;50.328;15.014;2023-12-04T11:01:36;99111.66;;;1.97;100.00
75895;BME280;64573;50.328;15.014;2023-12-04T11:04:03;99108.47;;;2.14;100.00
75895;BME280;64573;50.328;15.014;2023-12-04T11:06:33;99106.53;;;1.62;100.00
75895;BME280;64573;50.328;15.014;2023-12-04T11:09:01;99106.16;;;1.55;100.00
75895;BME280;64573;50.328;15.014;2023-12-04T11:11:34;99107.00;;;2.21;100.00
75895;BME280;64573;50.328;15.014;2023-12-04T11:14:01;99101.91;;;1.86;100.00
75895;BME280;64573;50.328;15.014;2023-12-04T11:16:38;99093.28;;;2.28;100.00
75895;BME280;64573;50.328;15.014;2023-12-04T11:19:23;99089.66;;;2.29;100.00
75895;BME280;64573;50.328;15.014;2023-12-04T11:21:53;99093.47;;;1.38;100.00
75895;BME280;64573;50.328;15.014;2023-12-04T11:24:20;99089.53;;;2.62;100.00
75895;BME280;64573;50.328;15.014;2023-12-04T11:26:46;99093.34;;;2.37;100.00
75895;BME280;64573;50.328;15.014;2023-12-04T11:29:13;99094.78;;;2.41;100.00
75895;BME280;64573;50.328;15.014;2023-12-04T11:36:30;99079.97;;;3.22;100.00
75895;BME280;64573;50.328;15.014;2023-12-04T11:38:56;99084.78;;;2.66;100.00
75895;BME280;64573;50.328;15.014;2023-12-04T11:41:23;99084.16;;;1.88;100.00
75895;BME280;64573;50.328;15.014;2023-12-04T11:43:49;99077.81;;;1.57;100.00
75895;BME280;64573;50.328;15.014;2023-12-04T11:51:44;99060.16;;;1.35;100.00
75895;BME280;64573;50.328;15.014;2023-12-04T11:54:01;99054.28;;;1.32;100.00
75895;BME280;64573;50.328;15.014;2023-12-04T11:56:30;99048.63;;;1.36;100.00
75895;BME280;64573;50.328;15.014;2023-12-04T11:59:02;99046.44;;;2.07;100.00
75895;BME280;64573;50.328;15.014;2023-12-04T12:01:27;99040.63;;;2.25;100.00
75895;BME280;64573;50.328;15.014;2023-12-04T12:03:52;99035.63;;;1.67;100.00
75895;BME280;64573;50.328;15.014;2023-12-04T12:06:18;99020.16;;;1.51;100.00
75895;BME280;64573;50.328;15.014;2023-12-04T12:08:44;99016.22;;;0.67;100.00
75895;BME280;64573;50.328;15.014;2023-12-04T12:11:09;99004.69;;;1.35;100.00
75895;BME280;64573;50.328;15.014;2023-12-04T12:13:35;99004.28;;;1.51;100.00
75895;BME280;64573;50.328;15.014;2023-12-04T12:16:00;99006.09;;;2.26;100.00
75895;BME280;64573;50.328;15.014;2023-12-04T12:18:27;98996.88;;;1.88;100.00
75895;BME280;64573;50.328;15.014;2023-12-04T12:20:54;98998.13;;;0.96;100.00
75895;BME280;64573;50.328;15.014;2023-12-04T12:23:20;98982.44;;;1.49;100.00
75895;BME280;64573;50.328;15.014;2023-12-04T12:25:45;98979.16;;;1.57;100.00
75895;BME280;64573;50.328;15.014;2023-12-04T12:28:12;98981.44;;;1.93;100.00
75895;BME280;64573;50.328;15.014;2023-12-04T12:30:38;98971.03;;;1.81;100.00
75895;BME280;64573;50.328;15.014;2023-12-04T12:35:36;98941.44;;;1.87;100.00
75895;BME280;64573;50.328;15.014;2023-12-04T12:40:31;98944.47;;;0.96;100.00
75895;BME280;64573;50.328;15.014;2023-12-04T12:45:23;98913.44;;;1.20;100.00
75895;BME280;64573;50.328;15.014;2023-12-04T12:50:14;98908.72;;;0.47;100.00
75895;BME280;64573;50.328;15.014;2023-12-04T12:52:40;98900.38;;;-0.05;100.00
75895;BME280;64573;50.328;15.014;2023-12-04T12:55:06;98905.78;;;0.05;100.00
75895;BME280;64573;50.328;15.014;2023-12-04T13:00:06;98894.78;;;0.56;100.00
75895;BME280;64573;50.328;15.014;2023-12-04T13:02:35;98898.03;;;0.15;100.00
75895;BME280;64573;50.328;15.014;2023-12-04T13:05:00;98891.63;;;-0.05;100.00
75895;BME280;64573;50.328;15.014;2023-12-04T13:09:55;98898.31;;;-0.01;100.00
75895;BME280;64573;50.328;15.014;2023-12-04T13:12:20;98891.63;;;0.06;100.00
75895;BME280;64573;50.328;15.014;2023-12-04T13:14:46;98895.09;;;1.19;100.00
75895;BME280;64573;50.328;15.014;2023-12-04T13:24:41;98888.31;;;0.71;100.00
75895;BME280;64573;50.328;15.014;2023-12-04T13:27:06;98881.88;;;1.19;100.00
75895;BME280;64573;50.328;15.014;2023-12-04T13:29:32;98888.00;;;1.19;100.00
75895;BME280;64573;50.328;15.014;2023-12-04T13:34:33;98877.28;;;1.32;100.00
75895;BME280;64573;50.328;15.014;2023-12-04T13:36:58;98873.88;;;1.41;100.00
75895;BME280;64573;50.328;15.014;2023-12-04T13:39:23;98885.59;;;1.59;100.00
75895;BME280;64573;50.328;15.014;2023-12-04T13:42:01;98867.81;;;0.64;100.00
75895;BME280;64573;50.328;15.014;2023-12-04T13:44:46;98872.47;;;0.71;100.00
75895;BME280;64573;50.328;15.014;2023-12-04T13:49:46;98861.22;;;0.47;100.00
75895;BME280;64573;50.328;15.014;2023-12-04T13:54:47;98845.38;;;0.02;100.00
75895;BME280;64573;50.328;15.014;2023-12-04T14:02:25;98839.38;;;-0.11;100.00
75895;BME280;64573;50.328;15.014;2023-12-04T14:04:50;98840.75;;;-0.41;100.00
75895;BME280;64573;50.328;15.014;2023-12-04T14:09:51;98851.59;;;-0.21;100.00
75895;BME280;64573;50.328;15.014;2023-12-04T14:17:38;98847.72;;;-0.29;100.00
75895;BME280;64573;50.328;15.014;2023-12-04T14:22:39;98832.41;;;-0.59;100.00
75895;BME280;64573;50.328;15.014;2023-12-04T14:25:07;98831.25;;;-0.54;100.00
75895;BME280;64573;50.328;15.014;2023-12-04T14:27:36;98836.78;;;-0.46;100.00
75895;BME280;64573;50.328;15.014;2023-12-04T14:30:11;98827.91;;;-0.45;100.00
75895;BME280;64573;50.328;15.014;2023-12-04T14:37:48;98816.13;;;-0.64;100.00
75895;BME280;64573;50.328;15.014;2023-12-04T14:42:49;98808.63;;;0.89;100.00
75895;BME280;64573;50.328;15.014;2023-12-04T14:50:21;98818.41;;;0.32;100.00
75895;BME280;64573;50.328;15.014;2023-12-04T14:52:48;98814.41;;;0.71;100.00
75895;BME280;64573;50.328;15.014;2023-12-04T15:00:18;98801.78;;;0.86;100.00